Terminal Aerodrome Forecast
Issued by NWS Binghamton, NY

Home | Current Version | Previous Version | Text Only | Print | Product List | Glossary On
Versions: 1 2 3 4 5 6 7 8 9 10 11 12 13 14 15 16 17 18 19 20 21 22
669
FTUS41 KBGM 161741
TAFBGM
TAF
KBGM 161741Z 1618/1718 34008KT P6SM SCT040
     FM170000 VRB03KT P6SM SKC
     FM170900 VRB03KT 2SM BR SCT005
     FM171300 15005KT P6SM SCT150=

USA.gov is the U.S. government's official web portal to all federal, state and local government web resources and services.